createdAt,value
2023-02-11T00:00:12.985Z,100.00
2023-02-11T00:02:48.016Z,100.00
2023-02-11T00:05:15.910Z,100.00
2023-02-11T00:07:45.909Z,100.00
2023-02-11T00:10:13.776Z,100.00
2023-02-11T00:12:43.093Z,100.00
2023-02-11T00:15:13.272Z,100.00
2023-02-11T00:17:42.956Z,100.00
2023-02-11T00:20:12.305Z,100.00
2023-02-11T00:22:42.464Z,100.00
2023-02-11T00:25:12.082Z,100.00
2023-02-11T00:27:39.923Z,100.00
2023-02-11T00:30:11.508Z,100.00
2023-02-11T00:32:41.246Z,100.00
2023-02-11T00:35:09.404Z,100.00
2023-02-11T00:37:40.716Z,100.00
2023-02-11T00:40:11.072Z,100.00
2023-02-11T00:42:41.102Z,100.00
2023-02-11T00:45:10.008Z,100.00
2023-02-11T00:47:39.815Z,100.00
2023-02-11T00:50:10.191Z,100.00
2023-02-11T00:52:44.524Z,100.00
2023-02-11T00:55:12.360Z,100.00
2023-02-11T00:57:42.440Z,100.00
2023-02-11T01:00:14.702Z,100.00
2023-02-11T01:02:45.120Z,100.00
2023-02-11T01:05:12.678Z,100.00
2023-02-11T01:07:43.624Z,100.00
2023-02-11T01:10:13.649Z,100.00
2023-02-11T01:12:41.596Z,100.00
2023-02-11T01:15:12.623Z,100.00
2023-02-11T01:17:40.375Z,100.00
2023-02-11T01:20:18.421Z,100.00
2023-02-11T01:22:47.455Z,100.00
2023-02-11T01:25:17.680Z,100.00
2023-02-11T01:27:51.818Z,100.00
2023-02-11T01:30:19.580Z,100.00
2023-02-11T01:32:47.298Z,100.00
2023-02-11T01:35:17.588Z,100.00
2023-02-11T01:37:45.306Z,100.00
2023-02-11T01:40:17.174Z,100.00
2023-02-11T01:42:51.314Z,100.00
2023-02-11T01:45:52.812Z,100.00
2023-02-11T01:48:30.738Z,100.00
2023-02-11T01:51:05.740Z,100.00
2023-02-11T01:53:57.140Z,100.00
2023-02-11T01:56:45.568Z,100.00
2023-02-11T01:59:19.721Z,100.00
2023-02-11T02:01:53.184Z,100.00
2023-02-11T02:04:29.351Z,100.00
2023-02-11T02:07:03.815Z,100.00
2023-02-11T02:09:41.680Z,100.00
2023-02-11T02:12:10.792Z,100.00
2023-02-11T02:14:41.444Z,100.00
2023-02-11T02:17:17.329Z,100.00
2023-02-11T02:20:22.049Z,100.00
2023-02-11T02:23:26.889Z,100.00
2023-02-11T02:26:36.203Z,100.00
2023-02-11T02:29:53.665Z,100.00
2023-02-11T02:32:44.219Z,100.00
2023-02-11T02:35:25.460Z,100.00
2023-02-11T02:38:00.312Z,100.00
2023-02-11T02:40:35.551Z,100.00
2023-02-11T02:43:06.096Z,100.00
2023-02-11T02:45:34.516Z,100.00
2023-02-11T02:48:07.897Z,100.00
2023-02-11T02:50:38.464Z,100.00
2023-02-11T02:53:22.348Z,100.00
2023-02-11T02:56:00.107Z,100.00
2023-02-11T02:58:54.432Z,100.00
2023-02-11T03:01:33.241Z,100.00
2023-02-11T03:04:15.726Z,100.00
2023-02-11T03:06:53.577Z,100.00
2023-02-11T03:09:32.836Z,100.00
2023-02-11T03:12:02.300Z,100.00
2023-02-11T03:14:38.366Z,100.00
2023-02-11T03:17:08.915Z,100.00
2023-02-11T03:19:44.616Z,100.00
2023-02-11T03:22:18.294Z,100.00
2023-02-11T03:24:50.426Z,100.00
2023-02-11T03:27:23.085Z,100.00
2023-02-11T03:29:59.116Z,100.00
2023-02-11T03:32:29.882Z,100.00
2023-02-11T03:35:06.787Z,100.00
2023-02-11T03:37:39.814Z,100.00
2023-02-11T03:40:14.728Z,100.00
2023-02-11T03:42:47.325Z,100.00
2023-02-11T03:45:22.035Z,100.00
2023-02-11T03:47:53.189Z,100.00
2023-02-11T03:50:29.655Z,100.00
2023-02-11T03:52:58.943Z,100.00
2023-02-11T03:55:32.797Z,100.00
2023-02-11T03:58:00.945Z,100.00
2023-02-11T04:00:36.283Z,100.00
2023-02-11T04:03:07.798Z,100.00
2023-02-11T04:05:40.779Z,100.00
2023-02-11T04:08:08.945Z,100.00
2023-02-11T04:10:36.851Z,100.00
2023-02-11T04:13:09.062Z,100.00
2023-02-11T04:15:36.794Z,100.00
2023-02-11T04:18:06.824Z,100.00
2023-02-11T04:20:35.920Z,100.00
2023-02-11T04:23:03.703Z,100.00
2023-02-11T04:25:33.717Z,100.00
2023-02-11T04:28:03.643Z,100.00
2023-02-11T04:30:31.477Z,100.00
2023-02-11T04:33:01.425Z,100.00
2023-02-11T04:35:31.326Z,100.00
2023-02-11T04:38:00.536Z,100.00
2023-02-11T04:40:30.543Z,100.00
2023-02-11T04:43:00.335Z,100.00
2023-02-11T04:45:28.075Z,100.00
2023-02-11T04:47:58.014Z,100.00
2023-02-11T04:50:28.158Z,100.00
2023-02-11T04:52:55.995Z,100.00
2023-02-11T04:55:25.129Z,100.00
2023-02-11T04:57:57.348Z,100.00
2023-02-11T05:00:25.181Z,100.00
2023-02-11T05:02:52.929Z,100.00
2023-02-11T05:05:24.830Z,100.00
2023-02-11T05:07:52.607Z,100.00
2023-02-11T05:10:20.439Z,100.00
2023-02-11T05:12:55.894Z,100.00
2023-02-11T05:15:23.836Z,100.00
2023-02-11T05:17:53.811Z,100.00
2023-02-11T05:20:21.767Z,100.00
2023-02-11T05:22:49.570Z,100.00
2023-02-11T05:25:20.415Z,100.00
2023-02-11T05:27:49.981Z,100.00
2023-02-11T05:30:19.173Z,100.00
2023-02-11T05:32:49.069Z,100.00
2023-02-11T05:35:19.077Z,100.00
2023-02-11T05:37:48.968Z,100.00
2023-02-11T05:40:16.949Z,100.00
2023-02-11T05:42:46.595Z,100.00
2023-02-11T05:45:14.468Z,100.00
2023-02-11T05:47:43.531Z,100.00
2023-02-11T05:50:13.298Z,100.00
2023-02-11T05:52:43.319Z,100.00
2023-02-11T05:55:11.718Z,100.00
2023-02-11T05:57:41.368Z,100.00
2023-02-11T06:00:12.323Z,100.00
2023-02-11T06:02:40.089Z,100.00
2023-02-11T06:05:12.004Z,100.00
2023-02-11T06:07:42.118Z,100.00
2023-02-11T06:10:11.136Z,100.00
2023-02-11T06:12:41.363Z,100.00
2023-02-11T06:15:11.915Z,100.00
2023-02-11T06:17:39.715Z,100.00
2023-02-11T06:20:12.691Z,100.00
2023-02-11T06:22:42.647Z,100.00
2023-02-11T06:25:11.153Z,100.00
2023-02-11T06:27:41.073Z,100.00
2023-02-11T06:30:12.357Z,100.00
2023-02-11T06:32:44.323Z,100.00
2023-02-11T06:35:18.607Z,100.00
2023-02-11T06:37:46.875Z,100.00
2023-02-11T06:40:14.756Z,100.00
2023-02-11T06:42:46.697Z,100.00
2023-02-11T06:45:14.617Z,100.00
2023-02-11T06:47:42.973Z,100.00
2023-02-11T06:50:17.859Z,100.00
2023-02-11T06:52:45.560Z,100.00
2023-02-11T06:55:15.876Z,100.00
2023-02-11T06:57:45.896Z,100.00
2023-02-11T07:00:15.136Z,100.00
2023-02-11T07:02:45.426Z,100.00
2023-02-11T07:05:15.052Z,100.00
2023-02-11T07:07:44.342Z,100.00
2023-02-11T07:10:18.369Z,100.00
2023-02-11T07:12:48.476Z,100.00
2023-02-11T07:15:16.177Z,100.00
2023-02-11T07:17:47.949Z,100.00
2023-02-11T07:20:15.700Z,100.00
2023-02-11T07:22:44.798Z,100.00
2023-02-11T07:25:12.681Z,100.00
2023-02-11T07:27:40.447Z,100.00
2023-02-11T07:30:09.114Z,100.00
2023-02-11T07:32:37.065Z,100.00
2023-02-11T07:35:05.365Z,100.00
2023-02-11T07:37:35.008Z,100.00
2023-02-11T07:40:09.890Z,100.00
2023-02-11T07:42:37.694Z,100.00
2023-02-11T07:45:08.281Z,100.00
2023-02-11T07:47:39.010Z,100.00
2023-02-11T07:50:07.775Z,100.00
2023-02-11T07:52:37.986Z,100.00
2023-02-11T07:55:07.662Z,100.00
2023-02-11T07:57:35.451Z,100.00
2023-02-11T08:00:07.054Z,100.00
2023-02-11T08:02:36.745Z,100.00
2023-02-11T08:05:04.489Z,100.00
2023-02-11T08:07:34.533Z,100.00
2023-02-11T08:10:04.176Z,100.00
2023-02-11T08:12:33.265Z,100.00
2023-02-11T08:15:03.192Z,100.00
2023-02-11T08:17:30.965Z,100.00
2023-02-11T08:19:58.657Z,100.00
2023-02-11T08:22:28.625Z,100.00
2023-02-11T08:24:58.372Z,100.00
2023-02-11T08:27:26.576Z,100.00
2023-02-11T08:30:01.346Z,100.00
2023-02-11T08:32:30.314Z,100.00
2023-02-11T08:35:00.246Z,100.00
2023-02-11T08:37:32.701Z,100.00
2023-02-11T08:40:01.015Z,100.00
2023-02-11T08:42:32.868Z,100.00
2023-02-11T08:45:03.179Z,100.00
2023-02-11T08:47:31.470Z,100.00
2023-02-11T08:50:03.404Z,100.00
2023-02-11T08:52:31.173Z,100.00
2023-02-11T08:54:58.900Z,100.00
2023-02-11T08:57:30.856Z,100.00
2023-02-11T08:59:58.611Z,100.00
2023-02-11T09:02:27.986Z,100.00
2023-02-11T09:04:55.974Z,100.00
2023-02-11T09:07:23.731Z,100.00
2023-02-11T09:09:51.432Z,100.00
2023-02-11T09:12:19.364Z,100.00
2023-02-11T09:14:47.504Z,100.00
2023-02-11T09:17:15.327Z,100.00
2023-02-11T09:19:44.640Z,100.00
2023-02-11T09:22:12.353Z,100.00
2023-02-11T09:24:40.176Z,100.00
2023-02-11T09:27:10.186Z,100.00
2023-02-11T09:29:37.910Z,100.00
2023-02-11T09:32:08.631Z,100.00
2023-02-11T09:34:39.782Z,100.00
2023-02-11T09:37:08.958Z,100.00
2023-02-11T09:39:38.286Z,100.00
2023-02-11T09:42:29.978Z,100.00
2023-02-11T09:45:00.597Z,100.00
2023-02-11T09:47:35.914Z,100.00
2023-02-11T09:50:07.705Z,100.00
2023-02-11T09:52:47.967Z,100.00
2023-02-11T09:55:24.091Z,100.00
2023-02-11T09:57:54.276Z,100.00
2023-02-11T10:00:25.935Z,100.00
2023-02-11T10:03:15.058Z,100.00
2023-02-11T10:06:06.557Z,100.00
2023-02-11T10:08:48.014Z,100.00
2023-02-11T10:11:31.681Z,100.00
2023-02-11T10:14:14.240Z,100.00
2023-02-11T10:16:53.904Z,100.00
2023-02-11T10:19:37.659Z,100.00
2023-02-11T10:22:14.110Z,100.00
2023-02-11T10:24:52.375Z,100.00
2023-02-11T10:27:22.404Z,100.00
2023-02-11T10:29:56.678Z,100.00
2023-02-11T10:32:32.201Z,100.00
2023-02-11T10:35:05.324Z,100.00
2023-02-11T10:37:33.150Z,100.00
2023-02-11T10:40:02.175Z,100.00
2023-02-11T10:42:32.767Z,100.00
2023-02-11T10:45:05.045Z,100.00
2023-02-11T10:47:40.001Z,100.00
2023-02-11T10:50:21.598Z,100.00
2023-02-11T10:52:49.888Z,100.00
2023-02-11T10:55:25.424Z,100.00
2023-02-11T10:58:01.513Z,100.00
2023-02-11T11:00:37.979Z,100.00
2023-02-11T11:03:10.167Z,100.00
2023-02-11T11:05:49.385Z,100.00
2023-02-11T11:08:18.121Z,100.00
2023-02-11T11:10:48.854Z,100.00
2023-02-11T11:13:32.974Z,99.56
2023-02-11T11:16:25.359Z,100.00
2023-02-11T11:18:56.551Z,99.82
2023-02-11T11:21:31.476Z,100.00
2023-02-11T11:24:00.917Z,99.20
2023-02-11T11:26:41.003Z,99.46
2023-02-11T11:29:12.898Z,100.00
2023-02-11T11:31:48.697Z,99.91
2023-02-11T11:34:30.278Z,99.25
2023-02-11T11:37:00.562Z,97.32
2023-02-11T11:39:30.884Z,98.16
2023-02-11T11:42:07.220Z,98.50
2023-02-11T11:44:36.666Z,96.73
2023-02-11T11:47:26.327Z,96.18
2023-02-11T11:50:20.176Z,96.22
2023-02-11T11:52:56.114Z,96.51
2023-02-11T11:55:28.043Z,94.61
2023-02-11T11:57:57.287Z,95.41
2023-02-11T12:00:32.418Z,94.87
2023-02-11T12:03:39.225Z,93.98
2023-02-11T12:06:21.847Z,95.56
2023-02-11T12:09:01.898Z,96.42
2023-02-11T12:11:45.967Z,94.83
2023-02-11T12:14:27.030Z,96.67
2023-02-11T12:17:03.396Z,95.97
2023-02-11T12:19:55.074Z,94.73
2023-02-11T12:22:32.220Z,94.88
2023-02-11T12:25:37.590Z,94.12
2023-02-11T12:28:20.377Z,92.87
2023-02-11T12:31:11.401Z,94.60
2023-02-11T12:34:05.832Z,94.59
2023-02-11T12:36:57.148Z,94.41
2023-02-11T12:39:35.083Z,94.62
2023-02-11T12:42:48.460Z,94.37
2023-02-11T12:45:27.577Z,92.79
2023-02-11T12:48:12.978Z,90.61
2023-02-11T12:50:55.058Z,90.87
2023-02-11T12:53:44.924Z,91.54
2023-02-11T12:56:19.758Z,88.19
2023-02-11T12:58:51.909Z,87.35
2023-02-11T13:01:24.696Z,87.08
2023-02-11T13:03:58.877Z,83.94
2023-02-11T13:06:30.698Z,85.74
2023-02-11T13:09:06.626Z,83.97
2023-02-11T13:11:40.300Z,86.64
2023-02-11T13:14:19.437Z,88.96
2023-02-11T13:16:50.749Z,88.87
2023-02-11T13:19:31.385Z,89.43
2023-02-11T13:22:05.241Z,90.01
2023-02-11T13:24:42.648Z,91.35
2023-02-11T13:27:20.473Z,90.03
2023-02-11T13:30:28.088Z,89.45
2023-02-11T13:33:07.798Z,90.42
2023-02-11T13:35:42.317Z,89.42
2023-02-11T13:38:22.248Z,87.35
2023-02-11T13:41:06.385Z,87.67
2023-02-11T13:43:36.289Z,88.42
2023-02-11T13:46:11.918Z,88.43
2023-02-11T13:48:46.634Z,89.64
2023-02-11T13:51:39.298Z,89.01
2023-02-11T13:54:11.910Z,88.18
2023-02-11T13:56:42.848Z,88.25
2023-02-11T13:59:49.222Z,87.61
2023-02-11T14:02:45.343Z,88.81
2023-02-11T14:05:48.828Z,87.41
2023-02-11T14:08:39.532Z,89.33
2023-02-11T14:11:12.405Z,90.18
2023-02-11T14:14:13.648Z,88.80
2023-02-11T14:17:20.539Z,89.76
2023-02-11T14:19:51.298Z,89.91
2023-02-11T14:22:25.922Z,90.36
2023-02-11T14:24:58.681Z,90.16
2023-02-11T14:27:45.537Z,91.08
2023-02-11T14:30:32.149Z,89.59
2023-02-11T14:33:21.606Z,91.46
2023-02-11T14:36:05.349Z,91.63
2023-02-11T14:38:50.333Z,91.48
2023-02-11T14:41:24.217Z,90.92
2023-02-11T14:43:56.833Z,90.17
2023-02-11T14:46:29.526Z,90.75
2023-02-11T14:49:00.973Z,91.15
2023-02-11T14:51:33.912Z,90.58
2023-02-11T14:54:13.386Z,90.65
2023-02-11T14:56:44.678Z,92.04
2023-02-11T14:59:19.630Z,91.69
2023-02-11T15:01:50.826Z,91.28
2023-02-11T15:04:27.070Z,91.94
2023-02-11T15:06:56.320Z,91.08
2023-02-11T15:09:29.516Z,92.53
2023-02-11T15:11:59.676Z,92.40
2023-02-11T15:14:30.366Z,93.44
2023-02-11T15:17:01.434Z,93.87
2023-02-11T15:19:34.369Z,93.54
2023-02-11T15:22:08.148Z,95.29
2023-02-11T15:24:39.345Z,95.42
2023-02-11T15:27:16.297Z,95.79
2023-02-11T15:29:45.973Z,97.22
2023-02-11T15:32:16.970Z,100.00
2023-02-11T15:34:45.901Z,100.00
2023-02-11T15:37:17.955Z,100.00
2023-02-11T15:39:45.823Z,100.00
2023-02-11T15:42:28.766Z,100.00
2023-02-11T15:45:25.900Z,100.00
2023-02-11T15:48:01.635Z,100.00
2023-02-11T15:50:31.830Z,100.00
2023-02-11T15:53:04.139Z,100.00
2023-02-11T15:55:32.317Z,100.00
2023-02-11T15:58:03.332Z,100.00
2023-02-11T16:00:38.930Z,100.00
2023-02-11T16:03:06.936Z,100.00
2023-02-11T16:05:37.450Z,100.00
2023-02-11T16:08:16.299Z,100.00
2023-02-11T16:10:58.346Z,100.00
2023-02-11T16:13:32.410Z,100.00
2023-02-11T16:16:04.702Z,100.00
2023-02-11T16:18:39.088Z,100.00
2023-02-11T16:21:13.305Z,100.00
2023-02-11T16:23:43.143Z,100.00
2023-02-11T16:26:20.783Z,100.00
2023-02-11T16:28:50.429Z,100.00
2023-02-11T16:31:20.727Z,100.00
2023-02-11T16:33:48.338Z,100.00
2023-02-11T16:36:19.980Z,100.00
2023-02-11T16:38:53.384Z,100.00
2023-02-11T16:41:21.115Z,100.00
2023-02-11T16:43:52.043Z,100.00
2023-02-11T16:46:19.945Z,100.00
2023-02-11T16:48:47.815Z,100.00
2023-02-11T16:51:15.851Z,100.00
2023-02-11T16:53:45.796Z,100.00
2023-02-11T16:56:16.934Z,100.00
2023-02-11T16:58:45.148Z,100.00
2023-02-11T17:01:17.353Z,100.00
2023-02-11T17:03:45.863Z,100.00
2023-02-11T17:06:14.740Z,100.00
2023-02-11T17:08:42.646Z,100.00
2023-02-11T17:11:10.584Z,100.00
2023-02-11T17:13:39.640Z,100.00
2023-02-11T17:16:17.195Z,100.00
2023-02-11T17:18:45.100Z,100.00
2023-02-11T17:21:13.254Z,100.00
2023-02-11T17:23:41.265Z,100.00
2023-02-11T17:26:10.187Z,100.00
2023-02-11T17:28:40.256Z,100.00
2023-02-11T17:31:11.609Z,100.00
2023-02-11T17:33:42.953Z,100.00
2023-02-11T17:36:12.002Z,100.00
2023-02-11T17:38:39.976Z,100.00
2023-02-11T17:41:07.945Z,100.00
2023-02-11T17:43:35.799Z,100.00
2023-02-11T17:46:09.596Z,100.00
2023-02-11T17:48:41.548Z,100.00
2023-02-11T17:51:25.133Z,100.00
2023-02-11T17:53:53.507Z,100.00
2023-02-11T17:56:21.675Z,100.00
2023-02-11T17:58:52.200Z,100.00
2023-02-11T18:01:20.657Z,100.00
2023-02-11T18:03:50.028Z,100.00
2023-02-11T18:06:19.578Z,100.00
2023-02-11T18:08:47.630Z,100.00
2023-02-11T18:11:17.796Z,100.00
2023-02-11T18:13:51.572Z,100.00
2023-02-11T18:16:19.419Z,100.00
2023-02-11T18:18:47.523Z,100.00
2023-02-11T18:21:18.210Z,100.00
2023-02-11T18:23:46.791Z,100.00
2023-02-11T18:26:16.350Z,100.00
2023-02-11T18:28:49.466Z,100.00
2023-02-11T18:31:20.469Z,100.00
2023-02-11T18:33:49.210Z,100.00
2023-02-11T18:36:18.617Z,100.00
2023-02-11T18:38:46.456Z,100.00
2023-02-11T18:41:16.970Z,100.00
2023-02-11T18:43:46.925Z,100.00
2023-02-11T18:46:16.317Z,100.00
2023-02-11T18:48:47.058Z,100.00
2023-02-11T18:51:19.732Z,100.00
2023-02-11T18:53:49.842Z,100.00
2023-02-11T18:56:21.975Z,100.00
2023-02-11T18:58:53.315Z,100.00
2023-02-11T19:01:27.279Z,100.00
2023-02-11T19:03:56.543Z,100.00
2023-02-11T19:06:29.732Z,100.00
2023-02-11T19:09:01.725Z,100.00
2023-02-11T19:11:49.717Z,100.00
2023-02-11T19:14:21.835Z,100.00
2023-02-11T19:16:54.049Z,100.00
2023-02-11T19:19:23.311Z,100.00
2023-02-11T19:21:52.806Z,100.00
2023-02-11T19:24:21.072Z,100.00
2023-02-11T19:26:51.992Z,100.00
2023-02-11T19:29:20.277Z,100.00
2023-02-11T19:31:48.361Z,100.00
2023-02-11T19:34:19.558Z,100.00
2023-02-11T19:36:48.209Z,100.00
2023-02-11T19:39:18.484Z,100.00
2023-02-11T19:41:46.316Z,100.00
2023-02-11T19:44:16.733Z,100.00
2023-02-11T19:46:44.708Z,100.00
2023-02-11T19:49:15.408Z,100.00
2023-02-11T19:51:43.267Z,100.00
2023-02-11T19:54:11.013Z,100.00
2023-02-11T19:56:42.081Z,100.00
2023-02-11T19:59:09.919Z,100.00
2023-02-11T20:01:38.165Z,100.00
2023-02-11T20:04:06.225Z,100.00
2023-02-11T20:06:35.058Z,100.00
2023-02-11T20:09:06.276Z,100.00
2023-02-11T20:11:38.153Z,100.00
2023-02-11T20:14:08.403Z,100.00
2023-02-11T20:16:47.701Z,100.00
2023-02-11T20:19:23.164Z,100.00
2023-02-11T20:21:53.075Z,100.00
2023-02-11T20:24:23.772Z,100.00
2023-02-11T20:26:57.104Z,100.00
2023-02-11T20:29:27.327Z,100.00
2023-02-11T20:31:55.577Z,100.00
2023-02-11T20:34:25.173Z,100.00
2023-02-11T20:36:55.776Z,100.00
2023-02-11T20:39:27.722Z,100.00
2023-02-11T20:42:00.537Z,100.00
2023-02-11T20:44:31.591Z,100.00
2023-02-11T20:46:59.266Z,100.00
2023-02-11T20:49:29.465Z,100.00
2023-02-11T20:51:59.350Z,100.00
2023-02-11T20:54:27.159Z,100.00
2023-02-11T20:56:56.907Z,100.00
2023-02-11T20:59:27.270Z,100.00
2023-02-11T21:01:57.837Z,100.00
2023-02-11T21:04:27.746Z,100.00
2023-02-11T21:06:58.296Z,100.00
2023-02-11T21:09:28.359Z,100.00
2023-02-11T21:12:00.905Z,100.00
2023-02-11T21:14:31.294Z,100.00
2023-02-11T21:17:00.241Z,100.00
2023-02-11T21:19:28.062Z,100.00
2023-02-11T21:22:00.755Z,100.00
2023-02-11T21:24:28.814Z,100.00
2023-02-11T21:26:56.536Z,100.00
2023-02-11T21:29:24.586Z,100.00
2023-02-11T21:31:52.578Z,100.00
2023-02-11T21:34:21.730Z,100.00
2023-02-11T21:36:54.191Z,100.00
2023-02-11T21:39:21.932Z,100.00
2023-02-11T21:41:49.732Z,100.00
2023-02-11T21:44:21.724Z,100.00
2023-02-11T21:47:22.905Z,100.00
2023-02-11T21:49:56.140Z,100.00
2023-02-11T21:52:23.920Z,100.00
2023-02-11T21:54:51.644Z,100.00
2023-02-11T21:57:23.480Z,100.00
2023-02-11T21:59:51.419Z,100.00
2023-02-11T22:02:19.161Z,100.00
2023-02-11T22:04:51.434Z,100.00
2023-02-11T22:07:24.505Z,100.00
2023-02-11T22:09:55.633Z,100.00
2023-02-11T22:12:23.551Z,100.00
2023-02-11T22:14:53.077Z,100.00
2023-02-11T22:17:21.202Z,100.00
2023-02-11T22:19:48.979Z,100.00
2023-02-11T22:22:20.219Z,100.00
2023-02-11T22:24:51.328Z,100.00
2023-02-11T22:27:20.321Z,100.00
2023-02-11T22:29:50.410Z,100.00
2023-02-11T22:32:20.334Z,100.00
2023-02-11T22:34:48.035Z,100.00
2023-02-11T22:37:17.982Z,100.00
2023-02-11T22:39:49.470Z,100.00
2023-02-11T22:42:17.279Z,100.00
2023-02-11T22:44:46.991Z,100.00
2023-02-11T22:47:16.889Z,100.00
2023-02-11T22:49:44.687Z,100.00
2023-02-11T22:52:14.300Z,100.00
2023-02-11T22:54:44.305Z,100.00
2023-02-11T22:57:13.333Z,100.00
2023-02-11T22:59:42.943Z,100.00
2023-02-11T23:02:11.001Z,100.00
2023-02-11T23:04:38.812Z,100.00
2023-02-11T23:07:08.501Z,100.00
2023-02-11T23:09:38.573Z,100.00
2023-02-11T23:12:06.670Z,100.00
2023-02-11T23:14:38.055Z,100.00
2023-02-11T23:17:08.079Z,100.00
2023-02-11T23:19:35.794Z,100.00
2023-02-11T23:22:05.937Z,100.00
2023-02-11T23:24:35.949Z,100.00
2023-02-11T23:27:03.917Z,100.00
2023-02-11T23:29:35.080Z,100.00
2023-02-11T23:32:06.531Z,100.00
2023-02-11T23:34:34.303Z,100.00
2023-02-11T23:37:04.035Z,100.00
2023-02-11T23:39:40.417Z,100.00
2023-02-11T23:42:10.036Z,100.00
2023-02-11T23:44:39.984Z,100.00
2023-02-11T23:47:14.126Z,100.00
2023-02-11T23:49:44.089Z,100.00
2023-02-11T23:52:11.817Z,100.00
2023-02-11T23:54:47.208Z,100.00
2023-02-11T23:57:15.011Z,100.00
2023-02-11T23:59:45.001Z,100.00
